Galahad — 8PPZ — position and weather

sailwx.info

Track history (hours):
 
Tides and Currents Weather Stations Pressure Air Temp Water Temp Dewpoint Dewpoint Depression Visibility Wind Speed Wind Dir Waves Ship Positions

Galahad

Last reported at 2018-Jan-12 14:30 UTC. Time now 2018-Jan-24 06:03 UTC.
Position N 31°43' E 121°08'.
Warning: this ship's position is 11 days out of date.

Length 190 m; draft 10.4 m.

Type: Cargo ship. MMSI: 314147000.

Date/timePositionNaut miles runAvg speedWind from/ knotsBaromVisibWave heightAir tempDewpointWater temp
2018-Jan-12 14:30N 31°43' E 121°08'611.1
2018-Jan-12 14:00N 31°40' E 121°13'612.7
2018-Jan-12 13:30N 31°35' E 121°18'611.7
2018-Jan-12 13:00N 31°31' E 121°23'611.6
2018-Jan-12 12:30N 31°27' E 121°28'4 7.9
2018-Jan-12 12:00N 31°25' E 121°32'  
2018-Jan-03 13:50N 41°19' E 140°15'410.1
2018-Jan-03 13:27N 41°21' E 140°19'711.6
2018-Jan-03 12:50N 41°25' E 140°27'411.7
2018-Jan-03 12:27N 41°27' E 140°32'612.6
2018-Jan-03 11:57N 41°30' E 140°39'613.2
2018-Jan-03 11:30N 41°34' E 140°46'613.0
2018-Jan-03 11:00N 41°37' E 140°54'612.5
2018-Jan-03 10:30N 41°38' E 141°02'713.1
2018-Jan-03 10:00N 41°39' E 141°10'712.4
2018-Jan-03 09:28N 41°39' E 141°19'612.6
2018-Jan-03 09:00N 41°39' E 141°27'712.7
2018-Jan-03 08:29N 41°39' E 141°36'  
Track history (hours):
 
Tides and Currents Weather Stations Pressure Air Temp Water Temp Dewpoint Dewpoint Depression Visibility Wind Speed Wind Dir Waves Ship Positions

Galahad

Last reported at 2018-Jan-12 14:30 UTC. Time now 2018-Jan-24 06:03 UTC.
Position N 31°43' E 121°08'.
Warning: this ship's position is 11 days out of date.

Length 190 m; draft 10.4 m.

Type: Cargo ship. MMSI: 314147000.

Date/timePositionNaut miles runAvg speedWind from/ knotsBaromVisibWave heightAir tempDewpointWater temp
2018-Jan-12 14:30N 31°43' E 121°08'611.1
2018-Jan-12 14:00N 31°40' E 121°13'612.7
2018-Jan-12 13:30N 31°35' E 121°18'611.7
2018-Jan-12 13:00N 31°31' E 121°23'611.6
2018-Jan-12 12:30N 31°27' E 121°28'4 7.9
2018-Jan-12 12:00N 31°25' E 121°32'  
2018-Jan-03 13:50N 41°19' E 140°15'410.1
2018-Jan-03 13:27N 41°21' E 140°19'711.6
2018-Jan-03 12:50N 41°25' E 140°27'411.7
2018-Jan-03 12:27N 41°27' E 140°32'612.6
2018-Jan-03 11:57N 41°30' E 140°39'613.2
2018-Jan-03 11:30N 41°34' E 140°46'613.0
2018-Jan-03 11:00N 41°37' E 140°54'612.5
2018-Jan-03 10:30N 41°38' E 141°02'713.1
2018-Jan-03 10:00N 41°39' E 141°10'712.4
2018-Jan-03 09:28N 41°39' E 141°19'612.6
2018-Jan-03 09:00N 41°39' E 141°27'712.7
2018-Jan-03 08:29N 41°39' E 141°36'  

Dump ship's entire track history